sensor_id;sensor_type;location;lat;lon;timestamp;P1;durP1;ratioP1;P2;durP2;ratioP2
25435;SDS011;13363;52.772;-3.890;2022-09-09T00:04:17;3.70;;;2.40;;
25435;SDS011;13363;52.772;-3.890;2022-09-09T00:06:52;3.57;;;2.07;;
25435;SDS011;13363;52.772;-3.890;2022-09-09T00:09:28;3.70;;;1.80;;
25435;SDS011;13363;52.772;-3.890;2022-09-09T00:17:32;4.83;;;2.07;;
25435;SDS011;13363;52.772;-3.890;2022-09-09T00:20:16;1.67;;;1.57;;
25435;SDS011;13363;52.772;-3.890;2022-09-09T00:23:11;3.53;;;2.07;;
25435;SDS011;13363;52.772;-3.890;2022-09-09T00:28:27;3.47;;;2.33;;
25435;SDS011;13363;52.772;-3.890;2022-09-09T00:30:59;6.53;;;2.43;;
25435;SDS011;13363;52.772;-3.890;2022-09-09T00:33:37;3.50;;;1.87;;
25435;SDS011;13363;52.772;-3.890;2022-09-09T00:36:07;2.40;;;2.10;;
25435;SDS011;13363;52.772;-3.890;2022-09-09T00:38:46;2.27;;;2.17;;
25435;SDS011;13363;52.772;-3.890;2022-09-09T00:41:17;2.43;;;2.20;;
25435;SDS011;13363;52.772;-3.890;2022-09-09T00:52:23;2.93;;;1.90;;
25435;SDS011;13363;52.772;-3.890;2022-09-09T00:57:48;2.73;;;2.47;;
25435;SDS011;13363;52.772;-3.890;2022-09-09T01:00:24;2.10;;;1.90;;
25435;SDS011;13363;52.772;-3.890;2022-09-09T01:06:16;3.60;;;1.90;;
25435;SDS011;13363;52.772;-3.890;2022-09-09T01:15:10;3.47;;;2.03;;
25435;SDS011;13363;52.772;-3.890;2022-09-09T01:20:23;6.40;;;1.80;;
25435;SDS011;13363;52.772;-3.890;2022-09-09T01:22:59;2.13;;;2.03;;
25435;SDS011;13363;52.772;-3.890;2022-09-09T01:28:14;2.57;;;2.20;;
25435;SDS011;13363;52.772;-3.890;2022-09-09T01:30:44;72.50;;;4.67;;
25435;SDS011;13363;52.772;-3.890;2022-09-09T01:33:14;3.47;;;2.23;;
25435;SDS011;13363;52.772;-3.890;2022-09-09T01:38:23;2.77;;;1.67;;
25435;SDS011;13363;52.772;-3.890;2022-09-09T01:40:50;3.73;;;2.00;;
25435;SDS011;13363;52.772;-3.890;2022-09-09T01:43:18;3.47;;;1.83;;
25435;SDS011;13363;52.772;-3.890;2022-09-09T01:45:48;2.37;;;2.17;;
25435;SDS011;13363;52.772;-3.890;2022-09-09T01:48:17;2.10;;;1.90;;
25435;SDS011;13363;52.772;-3.890;2022-09-09T01:50:44;4.10;;;2.13;;
25435;SDS011;13363;52.772;-3.890;2022-09-09T01:53:09;1.80;;;1.70;;
25435;SDS011;13363;52.772;-3.890;2022-09-09T01:55:40;3.13;;;2.00;;
25435;SDS011;13363;52.772;-3.890;2022-09-09T02:01:15;2.10;;;1.90;;
25435;SDS011;13363;52.772;-3.890;2022-09-09T02:03:53;2.63;;;1.90;;
25435;SDS011;13363;52.772;-3.890;2022-09-09T02:09:00;5.60;;;2.10;;
25435;SDS011;13363;52.772;-3.890;2022-09-09T02:11:29;4.80;;;2.20;;
25435;SDS011;13363;52.772;-3.890;2022-09-09T02:14:04;2.70;;;1.83;;
25435;SDS011;13363;52.772;-3.890;2022-09-09T02:17:21;2.43;;;1.90;;
25435;SDS011;13363;52.772;-3.890;2022-09-09T02:19:56;1.93;;;1.80;;
25435;SDS011;13363;52.772;-3.890;2022-09-09T02:22:18;3.73;;;1.90;;
25435;SDS011;13363;52.772;-3.890;2022-09-09T02:24:47;4.47;;;2.27;;
25435;SDS011;13363;52.772;-3.890;2022-09-09T02:27:17;4.20;;;2.10;;
25435;SDS011;13363;52.772;-3.890;2022-09-09T02:29:44;3.80;;;1.90;;
25435;SDS011;13363;52.772;-3.890;2022-09-09T02:32:13;2.27;;;2.00;;
25435;SDS011;13363;52.772;-3.890;2022-09-09T02:34:47;1.97;;;1.87;;
25435;SDS011;13363;52.772;-3.890;2022-09-09T02:37:17;4.70;;;1.50;;
25435;SDS011;13363;52.772;-3.890;2022-09-09T02:39:45;4.60;;;1.50;;
25435;SDS011;13363;52.772;-3.890;2022-09-09T02:42:12;2.03;;;1.50;;
25435;SDS011;13363;52.772;-3.890;2022-09-09T02:44:39;1.70;;;1.60;;
25435;SDS011;13363;52.772;-3.890;2022-09-09T02:49:59;1.90;;;1.50;;
25435;SDS011;13363;52.772;-3.890;2022-09-09T02:52:43;2.57;;;1.57;;
25435;SDS011;13363;52.772;-3.890;2022-09-09T02:55:14;1.80;;;1.70;;
25435;SDS011;13363;52.772;-3.890;2022-09-09T02:57:50;5.47;;;1.60;;
25435;SDS011;13363;52.772;-3.890;2022-09-09T03:00:22;3.23;;;1.80;;
25435;SDS011;13363;52.772;-3.890;2022-09-09T03:02:52;1.93;;;1.80;;
25435;SDS011;13363;52.772;-3.890;2022-09-09T03:05:20;2.47;;;1.90;;
25435;SDS011;13363;52.772;-3.890;2022-09-09T03:07:46;2.47;;;1.93;;
25435;SDS011;13363;52.772;-3.890;2022-09-09T03:10:12;4.47;;;1.83;;
25435;SDS011;13363;52.772;-3.890;2022-09-09T03:12:38;2.00;;;1.90;;
25435;SDS011;13363;52.772;-3.890;2022-09-09T03:15:04;1.97;;;1.80;;
25435;SDS011;13363;52.772;-3.890;2022-09-09T03:17:31;3.07;;;1.90;;
25435;SDS011;13363;52.772;-3.890;2022-09-09T03:19:57;1.87;;;1.70;;
25435;SDS011;13363;52.772;-3.890;2022-09-09T03:22:23;4.77;;;2.07;;
25435;SDS011;13363;52.772;-3.890;2022-09-09T03:24:53;2.03;;;1.87;;
25435;SDS011;13363;52.772;-3.890;2022-09-09T03:27:19;3.43;;;1.70;;
25435;SDS011;13363;52.772;-3.890;2022-09-09T03:29:45;3.40;;;1.70;;
25435;SDS011;13363;52.772;-3.890;2022-09-09T03:32:11;2.13;;;2.03;;
25435;SDS011;13363;52.772;-3.890;2022-09-09T03:34:38;1.90;;;1.80;;
25435;SDS011;13363;52.772;-3.890;2022-09-09T03:37:07;2.93;;;1.90;;
25435;SDS011;13363;52.772;-3.890;2022-09-09T03:39:33;4.97;;;1.80;;
25435;SDS011;13363;52.772;-3.890;2022-09-09T03:41:58;3.23;;;1.80;;
25435;SDS011;13363;52.772;-3.890;2022-09-09T03:44:24;1.63;;;1.53;;
25435;SDS011;13363;52.772;-3.890;2022-09-09T03:46:50;4.43;;;1.87;;
25435;SDS011;13363;52.772;-3.890;2022-09-09T03:49:16;4.93;;;1.97;;
25435;SDS011;13363;52.772;-3.890;2022-09-09T03:51:42;2.03;;;1.83;;
25435;SDS011;13363;52.772;-3.890;2022-09-09T03:54:08;2.53;;;2.00;;
25435;SDS011;13363;52.772;-3.890;2022-09-09T03:56:35;1.90;;;1.80;;
25435;SDS011;13363;52.772;-3.890;2022-09-09T03:59:01;1.83;;;1.73;;
25435;SDS011;13363;52.772;-3.890;2022-09-09T04:01:28;3.37;;;1.87;;
25435;SDS011;13363;52.772;-3.890;2022-09-09T04:03:54;3.20;;;1.47;;
25435;SDS011;13363;52.772;-3.890;2022-09-09T04:06:23;2.20;;;1.80;;
25435;SDS011;13363;52.772;-3.890;2022-09-09T04:08:49;2.10;;;1.90;;
25435;SDS011;13363;52.772;-3.890;2022-09-09T04:11:17;1.97;;;1.87;;
25435;SDS011;13363;52.772;-3.890;2022-09-09T04:13:43;1.80;;;1.70;;
25435;SDS011;13363;52.772;-3.890;2022-09-09T04:16:10;2.13;;;1.90;;
25435;SDS011;13363;52.772;-3.890;2022-09-09T04:18:38;1.93;;;1.83;;
25435;SDS011;13363;52.772;-3.890;2022-09-09T04:21:04;4.47;;;1.60;;
25435;SDS011;13363;52.772;-3.890;2022-09-09T04:23:31;2.03;;;1.70;;
25435;SDS011;13363;52.772;-3.890;2022-09-09T04:25:58;2.53;;;1.70;;
25435;SDS011;13363;52.772;-3.890;2022-09-09T04:28:27;3.47;;;1.57;;
25435;SDS011;13363;52.772;-3.890;2022-09-09T04:30:55;3.83;;;1.60;;
25435;SDS011;13363;52.772;-3.890;2022-09-09T04:33:25;4.33;;;1.90;;
25435;SDS011;13363;52.772;-3.890;2022-09-09T04:35:51;1.87;;;1.77;;
25435;SDS011;13363;52.772;-3.890;2022-09-09T04:38:19;6.17;;;1.70;;
25435;SDS011;13363;52.772;-3.890;2022-09-09T04:40:47;4.43;;;1.73;;
25435;SDS011;13363;52.772;-3.890;2022-09-09T04:43:14;1.93;;;1.83;;
25435;SDS011;13363;52.772;-3.890;2022-09-09T04:45:41;3.33;;;1.77;;
25435;SDS011;13363;52.772;-3.890;2022-09-09T04:48:07;4.50;;;1.70;;
25435;SDS011;13363;52.772;-3.890;2022-09-09T04:50:34;2.10;;;2.00;;
25435;SDS011;13363;52.772;-3.890;2022-09-09T04:53:04;2.93;;;1.80;;
25435;SDS011;13363;52.772;-3.890;2022-09-09T04:55:30;2.70;;;1.77;;
25435;SDS011;13363;52.772;-3.890;2022-09-09T04:57:57;4.90;;;1.67;;
25435;SDS011;13363;52.772;-3.890;2022-09-09T05:00:25;3.83;;;1.80;;
25435;SDS011;13363;52.772;-3.890;2022-09-09T05:02:51;2.10;;;2.00;;
25435;SDS011;13363;52.772;-3.890;2022-09-09T05:05:17;2.70;;;1.80;;
25435;SDS011;13363;52.772;-3.890;2022-09-09T05:07:43;1.67;;;1.57;;
25435;SDS011;13363;52.772;-3.890;2022-09-09T05:10:09;1.70;;;1.60;;
25435;SDS011;13363;52.772;-3.890;2022-09-09T05:12:35;2.27;;;1.70;;
25435;SDS011;13363;52.772;-3.890;2022-09-09T05:15:01;2.00;;;1.77;;
25435;SDS011;13363;52.772;-3.890;2022-09-09T05:17:27;4.50;;;2.00;;
25435;SDS011;13363;52.772;-3.890;2022-09-09T05:19:53;2.20;;;1.80;;
25435;SDS011;13363;52.772;-3.890;2022-09-09T05:22:19;1.80;;;1.70;;
25435;SDS011;13363;52.772;-3.890;2022-09-09T05:24:46;2.33;;;1.80;;
25435;SDS011;13363;52.772;-3.890;2022-09-09T05:27:16;2.27;;;1.67;;
25435;SDS011;13363;52.772;-3.890;2022-09-09T05:29:44;2.47;;;1.90;;
25435;SDS011;13363;52.772;-3.890;2022-09-09T05:32:10;2.90;;;2.07;;
25435;SDS011;13363;52.772;-3.890;2022-09-09T05:34:36;2.97;;;1.97;;
25435;SDS011;13363;52.772;-3.890;2022-09-09T05:37:02;3.23;;;2.00;;
25435;SDS011;13363;52.772;-3.890;2022-09-09T05:39:29;1.40;;;1.37;;
25435;SDS011;13363;52.772;-3.890;2022-09-09T05:41:55;2.50;;;1.80;;
25435;SDS011;13363;52.772;-3.890;2022-09-09T05:44:21;4.10;;;2.00;;
25435;SDS011;13363;52.772;-3.890;2022-09-09T05:46:49;1.80;;;1.70;;
25435;SDS011;13363;52.772;-3.890;2022-09-09T05:49:15;2.53;;;1.90;;
25435;SDS011;13363;52.772;-3.890;2022-09-09T05:51:41;5.80;;;1.83;;
25435;SDS011;13363;52.772;-3.890;2022-09-09T05:54:08;1.80;;;1.70;;
25435;SDS011;13363;52.772;-3.890;2022-09-09T05:56:34;2.30;;;1.70;;
25435;SDS011;13363;52.772;-3.890;2022-09-09T05:59:00;4.63;;;1.87;;
25435;SDS011;13363;52.772;-3.890;2022-09-09T06:01:27;3.10;;;1.80;;
25435;SDS011;13363;52.772;-3.890;2022-09-09T06:03:55;4.37;;;2.13;;
25435;SDS011;13363;52.772;-3.890;2022-09-09T06:06:25;3.57;;;2.23;;
25435;SDS011;13363;52.772;-3.890;2022-09-09T06:08:52;3.67;;;1.80;;
25435;SDS011;13363;52.772;-3.890;2022-09-09T06:13:47;2.00;;;1.90;;
25435;SDS011;13363;52.772;-3.890;2022-09-09T06:16:16;2.40;;;2.10;;
25435;SDS011;13363;52.772;-3.890;2022-09-09T06:18:43;1.60;;;1.50;;
25435;SDS011;13363;52.772;-3.890;2022-09-09T06:21:16;2.03;;;1.80;;
25435;SDS011;13363;52.772;-3.890;2022-09-09T06:23:43;2.97;;;1.57;;
25435;SDS011;13363;52.772;-3.890;2022-09-09T06:26:11;1.90;;;1.80;;
25435;SDS011;13363;52.772;-3.890;2022-09-09T06:28:40;7.37;;;1.90;;
25435;SDS011;13363;52.772;-3.890;2022-09-09T06:31:09;1.70;;;1.60;;
25435;SDS011;13363;52.772;-3.890;2022-09-09T06:33:38;1.60;;;1.60;;
25435;SDS011;13363;52.772;-3.890;2022-09-09T06:36:07;1.83;;;1.70;;
25435;SDS011;13363;52.772;-3.890;2022-09-09T06:38:40;5.13;;;2.07;;
25435;SDS011;13363;52.772;-3.890;2022-09-09T06:41:07;4.03;;;1.90;;
25435;SDS011;13363;52.772;-3.890;2022-09-09T06:43:34;2.03;;;1.83;;
25435;SDS011;13363;52.772;-3.890;2022-09-09T06:46:09;2.00;;;1.90;;
25435;SDS011;13363;52.772;-3.890;2022-09-09T06:48:40;1.70;;;1.60;;
25435;SDS011;13363;52.772;-3.890;2022-09-09T06:51:08;3.33;;;1.97;;
25435;SDS011;13363;52.772;-3.890;2022-09-09T06:53:39;3.73;;;1.90;;
25435;SDS011;13363;52.772;-3.890;2022-09-09T06:58:35;4.17;;;1.70;;
25435;SDS011;13363;52.772;-3.890;2022-09-09T07:01:09;2.60;;;2.00;;
25435;SDS011;13363;52.772;-3.890;2022-09-09T07:03:39;1.60;;;1.50;;
25435;SDS011;13363;52.772;-3.890;2022-09-09T07:06:06;3.60;;;1.63;;
25435;SDS011;13363;52.772;-3.890;2022-09-09T07:08:32;2.23;;;1.50;;
25435;SDS011;13363;52.772;-3.890;2022-09-09T07:11:02;6.20;;;1.70;;
25435;SDS011;13363;52.772;-3.890;2022-09-09T07:13:32;1.63;;;1.53;;
25435;SDS011;13363;52.772;-3.890;2022-09-09T07:16:05;1.80;;;1.63;;
25435;SDS011;13363;52.772;-3.890;2022-09-09T07:18:36;3.17;;;1.57;;
25435;SDS011;13363;52.772;-3.890;2022-09-09T07:21:02;2.00;;;1.80;;
25435;SDS011;13363;52.772;-3.890;2022-09-09T07:23:29;2.53;;;1.60;;
25435;SDS011;13363;52.772;-3.890;2022-09-09T07:25:56;1.63;;;1.50;;
25435;SDS011;13363;52.772;-3.890;2022-09-09T07:28:23;4.70;;;1.63;;
25435;SDS011;13363;52.772;-3.890;2022-09-09T07:30:53;2.53;;;1.60;;
25435;SDS011;13363;52.772;-3.890;2022-09-09T07:33:19;2.10;;;1.73;;
25435;SDS011;13363;52.772;-3.890;2022-09-09T07:35:45;1.67;;;1.40;;
25435;SDS011;13363;52.772;-3.890;2022-09-09T07:38:11;1.60;;;1.50;;
25435;SDS011;13363;52.772;-3.890;2022-09-09T07:40:37;1.47;;;1.37;;
25435;SDS011;13363;52.772;-3.890;2022-09-09T07:43:03;2.73;;;1.50;;
25435;SDS011;13363;52.772;-3.890;2022-09-09T07:45:29;1.50;;;1.40;;
25435;SDS011;13363;52.772;-3.890;2022-09-09T07:47:57;4.13;;;1.57;;
25435;SDS011;13363;52.772;-3.890;2022-09-09T07:50:23;2.27;;;1.47;;
25435;SDS011;13363;52.772;-3.890;2022-09-09T07:52:52;3.03;;;1.37;;
25435;SDS011;13363;52.772;-3.890;2022-09-09T07:55:19;2.43;;;1.50;;
25435;SDS011;13363;52.772;-3.890;2022-09-09T07:57:45;2.70;;;1.20;;
25435;SDS011;13363;52.772;-3.890;2022-09-09T08:00:12;2.23;;;1.00;;
25435;SDS011;13363;52.772;-3.890;2022-09-09T08:02:40;0.90;;;0.90;;
25435;SDS011;13363;52.772;-3.890;2022-09-09T08:05:06;1.38;;;1.00;;
25435;SDS011;13363;52.772;-3.890;2022-09-09T08:07:32;0.60;;;0.60;;
25435;SDS011;13363;52.772;-3.890;2022-09-09T08:09:58;1.33;;;0.85;;
25435;SDS011;13363;52.772;-3.890;2022-09-09T08:12:24;0.98;;;0.80;;
25435;SDS011;13363;52.772;-3.890;2022-09-09T08:14:49;3.05;;;0.85;;
25435;SDS011;13363;52.772;-3.890;2022-09-09T08:17:16;0.55;;;0.55;;
25435;SDS011;13363;52.772;-3.890;2022-09-09T08:19:42;0.77;;;0.70;;
25435;SDS011;13363;52.772;-3.890;2022-09-09T08:22:09;1.17;;;0.77;;
25435;SDS011;13363;52.772;-3.890;2022-09-09T08:24:35;1.73;;;0.95;;
25435;SDS011;13363;52.772;-3.890;2022-09-09T08:27:01;1.58;;;0.82;;
25435;SDS011;13363;52.772;-3.890;2022-09-09T08:29:28;2.35;;;0.63;;
25435;SDS011;13363;52.772;-3.890;2022-09-09T08:31:54;0.60;;;0.60;;
25435;SDS011;13363;52.772;-3.890;2022-09-09T08:34:22;0.88;;;0.50;;
25435;SDS011;13363;52.772;-3.890;2022-09-09T08:36:51;1.38;;;0.90;;
25435;SDS011;13363;52.772;-3.890;2022-09-09T08:39:18;0.70;;;0.70;;
25435;SDS011;13363;52.772;-3.890;2022-09-09T08:41:55;0.73;;;0.73;;
25435;SDS011;13363;52.772;-3.890;2022-09-09T08:49:59;2.33;;;0.77;;
25435;SDS011;13363;52.772;-3.890;2022-09-09T08:55:48;2.05;;;0.70;;
25435;SDS011;13363;52.772;-3.890;2022-09-09T08:58:21;0.80;;;0.60;;
25435;SDS011;13363;52.772;-3.890;2022-09-09T09:11:57;0.40;;;0.40;;
25435;SDS011;13363;52.772;-3.890;2022-09-09T09:14:30;0.40;;;0.40;;
25435;SDS011;13363;52.772;-3.890;2022-09-09T09:19:34;0.73;;;0.60;;
25435;SDS011;13363;52.772;-3.890;2022-09-09T09:30:01;0.20;;;0.20;;
25435;SDS011;13363;52.772;-3.890;2022-09-09T09:32:37;0.75;;;0.55;;
25435;SDS011;13363;52.772;-3.890;2022-09-09T09:35:09;0.93;;;0.50;;
25435;SDS011;13363;52.772;-3.890;2022-09-09T09:37:39;0.45;;;0.38;;
25435;SDS011;13363;52.772;-3.890;2022-09-09T09:40:12;3.47;;;0.50;;
25435;SDS011;13363;52.772;-3.890;2022-09-09T09:42:50;0.30;;;0.30;;
25435;SDS011;13363;52.772;-3.890;2022-09-09T09:46:03;1.35;;;0.40;;
25435;SDS011;13363;52.772;-3.890;2022-09-09T09:48:10;1.15;;;0.52;;
25435;SDS011;13363;52.772;-3.890;2022-09-09T09:53:28;0.40;;;0.30;;
25435;SDS011;13363;52.772;-3.890;2022-09-09T09:55:59;0.75;;;0.50;;
25435;SDS011;13363;52.772;-3.890;2022-09-09T09:58:30;0.45;;;0.40;;
25435;SDS011;13363;52.772;-3.890;2022-09-09T10:00:59;0.43;;;0.32;;
25435;SDS011;13363;52.772;-3.890;2022-09-09T10:03:33;0.40;;;0.40;;
25435;SDS011;13363;52.772;-3.890;2022-09-09T10:06:04;0.80;;;0.38;;
25435;SDS011;13363;52.772;-3.890;2022-09-09T10:08:33;0.40;;;0.40;;
25435;SDS011;13363;52.772;-3.890;2022-09-09T10:16:52;0.50;;;0.50;;
25435;SDS011;13363;52.772;-3.890;2022-09-09T10:19:30;0.70;;;0.70;;
25435;SDS011;13363;52.772;-3.890;2022-09-09T10:30:21;1.70;;;1.15;;
25435;SDS011;13363;52.772;-3.890;2022-09-09T10:33:12;1.42;;;1.30;;
25435;SDS011;13363;52.772;-3.890;2022-09-09T10:36:02;1.52;;;1.20;;
25435;SDS011;13363;52.772;-3.890;2022-09-09T10:38:42;2.22;;;1.42;;
25435;SDS011;13363;52.772;-3.890;2022-09-09T10:41:16;3.42;;;1.42;;
25435;SDS011;13363;52.772;-3.890;2022-09-09T10:59:58;3.08;;;1.30;;
25435;SDS011;13363;52.772;-3.890;2022-09-09T11:02:30;1.75;;;1.65;;
25435;SDS011;13363;52.772;-3.890;2022-09-09T11:07:34;1.77;;;1.60;;
25435;SDS011;13363;52.772;-3.890;2022-09-09T11:10:42;1.50;;;1.40;;
25435;SDS011;13363;52.772;-3.890;2022-09-09T11:13:11;1.42;;;1.35;;
25435;SDS011;13363;52.772;-3.890;2022-09-09T11:15:56;1.52;;;1.42;;
25435;SDS011;13363;52.772;-3.890;2022-09-09T11:18:29;2.35;;;1.58;;
25435;SDS011;13363;52.772;-3.890;2022-09-09T11:21:01;1.70;;;1.55;;
25435;SDS011;13363;52.772;-3.890;2022-09-09T11:26:33;1.60;;;1.50;;
25435;SDS011;13363;52.772;-3.890;2022-09-09T11:34:37;3.80;;;1.30;;
25435;SDS011;13363;52.772;-3.890;2022-09-09T11:40:23;1.95;;;1.38;;
25435;SDS011;13363;52.772;-3.890;2022-09-09T11:45:52;1.35;;;1.25;;
25435;SDS011;13363;52.772;-3.890;2022-09-09T11:48:40;1.40;;;1.27;;
25435;SDS011;13363;52.772;-3.890;2022-09-09T11:53:55;1.40;;;1.30;;
25435;SDS011;13363;52.772;-3.890;2022-09-09T11:56:34;1.73;;;1.27;;
25435;SDS011;13363;52.772;-3.890;2022-09-09T11:59:18;2.20;;;1.52;;
25435;SDS011;13363;52.772;-3.890;2022-09-09T12:01:45;1.60;;;1.50;;
25435;SDS011;13363;52.772;-3.890;2022-09-09T12:14:38;2.45;;;1.40;;
25435;SDS011;13363;52.772;-3.890;2022-09-09T12:17:25;1.20;;;1.20;;
25435;SDS011;13363;52.772;-3.890;2022-09-09T12:31:09;1.45;;;1.25;;
25435;SDS011;13363;52.772;-3.890;2022-09-09T12:33:42;3.22;;;1.52;;
25435;SDS011;13363;52.772;-3.890;2022-09-09T12:36:14;1.45;;;1.33;;
25435;SDS011;13363;52.772;-3.890;2022-09-09T12:38:44;1.50;;;1.27;;
25435;SDS011;13363;52.772;-3.890;2022-09-09T12:41:21;1.83;;;1.67;;
25435;SDS011;13363;52.772;-3.890;2022-09-09T12:44:13;3.03;;;1.70;;
25435;SDS011;13363;52.772;-3.890;2022-09-09T12:46:42;1.65;;;1.40;;
25435;SDS011;13363;52.772;-3.890;2022-09-09T12:49:25;1.77;;;1.50;;
25435;SDS011;13363;52.772;-3.890;2022-09-09T12:52:04;1.73;;;1.63;;
25435;SDS011;13363;52.772;-3.890;2022-09-09T12:54:51;2.17;;;1.33;;
25435;SDS011;13363;52.772;-3.890;2022-09-09T12:57:19;1.13;;;1.10;;
25435;SDS011;13363;52.772;-3.890;2022-09-09T12:59:48;2.05;;;1.63;;
25435;SDS011;13363;52.772;-3.890;2022-09-09T13:02:18;2.70;;;1.52;;
25435;SDS011;13363;52.772;-3.890;2022-09-09T13:04:47;2.58;;;1.27;;
25435;SDS011;13363;52.772;-3.890;2022-09-09T13:07:15;1.23;;;1.23;;
25435;SDS011;13363;52.772;-3.890;2022-09-09T13:09:45;1.73;;;1.63;;
25435;SDS011;13363;52.772;-3.890;2022-09-09T13:12:16;1.23;;;1.20;;
25435;SDS011;13363;52.772;-3.890;2022-09-09T13:14:53;1.42;;;1.33;;
25435;SDS011;13363;52.772;-3.890;2022-09-09T13:17:22;1.23;;;1.17;;
25435;SDS011;13363;52.772;-3.890;2022-09-09T13:19:50;1.55;;;1.10;;
25435;SDS011;13363;52.772;-3.890;2022-09-09T13:22:34;1.90;;;1.58;;
25435;SDS011;13363;52.772;-3.890;2022-09-09T13:25:06;1.83;;;1.20;;
25435;SDS011;13363;52.772;-3.890;2022-09-09T13:27:54;1.50;;;1.40;;
25435;SDS011;13363;52.772;-3.890;2022-09-09T13:30:26;1.48;;;1.00;;
25435;SDS011;13363;52.772;-3.890;2022-09-09T13:35:56;1.55;;;1.02;;
25435;SDS011;13363;52.772;-3.890;2022-09-09T13:38:24;1.15;;;1.05;;
25435;SDS011;13363;52.772;-3.890;2022-09-09T13:41:00;1.88;;;1.30;;
25435;SDS011;13363;52.772;-3.890;2022-09-09T13:43:36;2.08;;;1.42;;
25435;SDS011;13363;52.772;-3.890;2022-09-09T13:51:40;1.65;;;1.27;;
25435;SDS011;13363;52.772;-3.890;2022-09-09T13:54:10;2.70;;;1.02;;
25435;SDS011;13363;52.772;-3.890;2022-09-09T13:56:38;1.02;;;1.02;;
25435;SDS011;13363;52.772;-3.890;2022-09-09T13:59:05;1.50;;;1.40;;
25435;SDS011;13363;52.772;-3.890;2022-09-09T14:01:36;1.50;;;1.40;;
25435;SDS011;13363;52.772;-3.890;2022-09-09T14:04:02;1.88;;;1.45;;
25435;SDS011;13363;52.772;-3.890;2022-09-09T14:06:29;1.38;;;1.17;;
25435;SDS011;13363;52.772;-3.890;2022-09-09T14:08:55;1.60;;;1.50;;
25435;SDS011;13363;52.772;-3.890;2022-09-09T14:11:21;3.13;;;1.60;;
25435;SDS011;13363;52.772;-3.890;2022-09-09T14:13:49;2.63;;;1.30;;
25435;SDS011;13363;52.772;-3.890;2022-09-09T14:16:16;1.60;;;1.52;;
25435;SDS011;13363;52.772;-3.890;2022-09-09T14:18:44;1.40;;;1.30;;
25435;SDS011;13363;52.772;-3.890;2022-09-09T14:21:11;1.85;;;1.60;;
25435;SDS011;13363;52.772;-3.890;2022-09-09T14:23:38;1.80;;;1.20;;
25435;SDS011;13363;52.772;-3.890;2022-09-09T14:26:04;1.52;;;1.42;;
25435;SDS011;13363;52.772;-3.890;2022-09-09T14:28:31;1.60;;;1.50;;
25435;SDS011;13363;52.772;-3.890;2022-09-09T14:31:01;1.40;;;1.30;;
25435;SDS011;13363;52.772;-3.890;2022-09-09T14:33:29;2.10;;;1.42;;
25435;SDS011;13363;52.772;-3.890;2022-09-09T14:35:58;1.63;;;1.40;;
25435;SDS011;13363;52.772;-3.890;2022-09-09T14:38:28;1.85;;;1.15;;
25435;SDS011;13363;52.772;-3.890;2022-09-09T14:40:55;2.40;;;1.40;;
25435;SDS011;13363;52.772;-3.890;2022-09-09T14:43:23;1.98;;;1.30;;
25435;SDS011;13363;52.772;-3.890;2022-09-09T14:45:49;2.72;;;1.30;;
25435;SDS011;13363;52.772;-3.890;2022-09-09T14:48:16;1.63;;;1.33;;
25435;SDS011;13363;52.772;-3.890;2022-09-09T14:50:42;1.40;;;1.30;;
25435;SDS011;13363;52.772;-3.890;2022-09-09T14:53:08;1.40;;;1.30;;
25435;SDS011;13363;52.772;-3.890;2022-09-09T14:55:35;1.50;;;1.40;;
25435;SDS011;13363;52.772;-3.890;2022-09-09T14:58:02;1.45;;;1.35;;
25435;SDS011;13363;52.772;-3.890;2022-09-09T15:00:28;1.50;;;1.20;;
25435;SDS011;13363;52.772;-3.890;2022-09-09T15:02:55;1.20;;;1.10;;
25435;SDS011;13363;52.772;-3.890;2022-09-09T15:05:21;1.02;;;0.70;;
25435;SDS011;13363;52.772;-3.890;2022-09-09T15:07:47;1.45;;;1.10;;
25435;SDS011;13363;52.772;-3.890;2022-09-09T15:10:13;1.10;;;1.10;;
25435;SDS011;13363;52.772;-3.890;2022-09-09T15:12:39;1.17;;;1.17;;
25435;SDS011;13363;52.772;-3.890;2022-09-09T15:15:07;1.30;;;1.20;;
25435;SDS011;13363;52.772;-3.890;2022-09-09T15:17:33;1.80;;;1.38;;
25435;SDS011;13363;52.772;-3.890;2022-09-09T15:20:00;1.48;;;1.38;;
25435;SDS011;13363;52.772;-3.890;2022-09-09T15:22:27;1.40;;;1.40;;
25435;SDS011;13363;52.772;-3.890;2022-09-09T15:24:52;1.20;;;1.20;;
25435;SDS011;13363;52.772;-3.890;2022-09-09T15:27:18;2.30;;;1.27;;
25435;SDS011;13363;52.772;-3.890;2022-09-09T15:29:44;1.73;;;1.27;;
25435;SDS011;13363;52.772;-3.890;2022-09-09T15:32:10;1.55;;;1.45;;
25435;SDS011;13363;52.772;-3.890;2022-09-09T15:34:36;1.73;;;1.23;;
25435;SDS011;13363;52.772;-3.890;2022-09-09T15:37:02;1.15;;;1.10;;
25435;SDS011;13363;52.772;-3.890;2022-09-09T15:39:27;2.17;;;1.15;;
25435;SDS011;13363;52.772;-3.890;2022-09-09T15:41:53;1.75;;;1.35;;
25435;SDS011;13363;52.772;-3.890;2022-09-09T15:44:19;1.15;;;1.10;;
25435;SDS011;13363;52.772;-3.890;2022-09-09T15:46:49;1.65;;;1.55;;
25435;SDS011;13363;52.772;-3.890;2022-09-09T15:49:16;2.05;;;1.75;;
25435;SDS011;13363;52.772;-3.890;2022-09-09T15:51:45;1.48;;;1.35;;
25435;SDS011;13363;52.772;-3.890;2022-09-09T15:54:14;1.60;;;1.50;;
25435;SDS011;13363;52.772;-3.890;2022-09-09T15:56:46;1.40;;;1.23;;
25435;SDS011;13363;52.772;-3.890;2022-09-09T15:59:15;1.88;;;1.27;;
25435;SDS011;13363;52.772;-3.890;2022-09-09T16:01:41;1.17;;;1.08;;
25435;SDS011;13363;52.772;-3.890;2022-09-09T16:04:08;1.80;;;1.20;;
25435;SDS011;13363;52.772;-3.890;2022-09-09T16:06:33;1.30;;;1.20;;
25435;SDS011;13363;52.772;-3.890;2022-09-09T16:08:59;1.75;;;1.20;;
25435;SDS011;13363;52.772;-3.890;2022-09-09T16:11:29;1.38;;;1.02;;
25435;SDS011;13363;52.772;-3.890;2022-09-09T16:13:58;1.20;;;1.10;;
25435;SDS011;13363;52.772;-3.890;2022-09-09T16:16:26;2.13;;;1.30;;
25435;SDS011;13363;52.772;-3.890;2022-09-09T16:18:54;1.35;;;1.00;;
25435;SDS011;13363;52.772;-3.890;2022-09-09T16:21:30;3.70;;;1.40;;
25435;SDS011;13363;52.772;-3.890;2022-09-09T16:23:59;0.90;;;0.90;;
25435;SDS011;13363;52.772;-3.890;2022-09-09T16:26:31;1.63;;;1.13;;
25435;SDS011;13363;52.772;-3.890;2022-09-09T16:29:00;2.05;;;1.02;;
25435;SDS011;13363;52.772;-3.890;2022-09-09T16:31:31;1.55;;;0.98;;
25435;SDS011;13363;52.772;-3.890;2022-09-09T16:34:02;1.27;;;1.10;;
25435;SDS011;13363;52.772;-3.890;2022-09-09T16:36:34;2.20;;;1.10;;
25435;SDS011;13363;52.772;-3.890;2022-09-09T16:39:11;2.13;;;1.20;;
25435;SDS011;13363;52.772;-3.890;2022-09-09T16:41:39;0.90;;;0.77;;
25435;SDS011;13363;52.772;-3.890;2022-09-09T16:44:07;1.25;;;0.98;;
25435;SDS011;13363;52.772;-3.890;2022-09-09T16:46:35;0.73;;;0.73;;
25435;SDS011;13363;52.772;-3.890;2022-09-09T16:49:05;1.58;;;0.90;;
25435;SDS011;13363;52.772;-3.890;2022-09-09T16:51:36;1.33;;;1.00;;
25435;SDS011;13363;52.772;-3.890;2022-09-09T16:54:13;0.80;;;0.80;;
25435;SDS011;13363;52.772;-3.890;2022-09-09T16:56:41;1.40;;;1.00;;
25435;SDS011;13363;52.772;-3.890;2022-09-09T16:59:09;2.60;;;0.77;;
25435;SDS011;13363;52.772;-3.890;2022-09-09T17:01:38;2.05;;;0.93;;
25435;SDS011;13363;52.772;-3.890;2022-09-09T17:04:09;0.80;;;0.80;;
25435;SDS011;13363;52.772;-3.890;2022-09-09T17:06:38;1.95;;;1.00;;
25435;SDS011;13363;52.772;-3.890;2022-09-09T17:09:06;1.80;;;0.80;;
25435;SDS011;13363;52.772;-3.890;2022-09-09T17:11:34;0.70;;;0.70;;
25435;SDS011;13363;52.772;-3.890;2022-09-09T17:14:01;0.95;;;0.95;;
25435;SDS011;13363;52.772;-3.890;2022-09-09T17:16:29;1.42;;;0.77;;
25435;SDS011;13363;52.772;-3.890;2022-09-09T17:18:57;3.92;;;1.20;;
25435;SDS011;13363;52.772;-3.890;2022-09-09T17:21:26;1.15;;;1.00;;
25435;SDS011;13363;52.772;-3.890;2022-09-09T17:23:54;1.13;;;0.88;;
25435;SDS011;13363;52.772;-3.890;2022-09-09T17:26:21;1.27;;;0.75;;
25435;SDS011;13363;52.772;-3.890;2022-09-09T17:28:48;1.67;;;0.85;;
25435;SDS011;13363;52.772;-3.890;2022-09-09T17:31:16;1.58;;;0.70;;
25435;SDS011;13363;52.772;-3.890;2022-09-09T17:33:47;0.75;;;0.70;;
25435;SDS011;13363;52.772;-3.890;2022-09-09T17:36:18;0.70;;;0.70;;